sensor_id;sensor_type;location;lat;lon;timestamp;pressure;altitude;pressure_sealevel;temperature;humidity
74659;BME280;63186;51.204;6.536;2023-05-14T00:00:10;101425.81;;;10.59;100.00
74659;BME280;63186;51.204;6.536;2023-05-14T00:02:35;101424.13;;;10.64;100.00
74659;BME280;63186;51.204;6.536;2023-05-14T00:05:00;101425.97;;;10.68;100.00
74659;BME280;63186;51.204;6.536;2023-05-14T00:07:25;101421.56;;;10.67;100.00
74659;BME280;63186;51.204;6.536;2023-05-14T00:09:57;101419.06;;;10.71;100.00
74659;BME280;63186;51.204;6.536;2023-05-14T00:12:23;101410.25;;;10.69;100.00
74659;BME280;63186;51.204;6.536;2023-05-14T00:14:48;101413.31;;;10.67;100.00
74659;BME280;63186;51.204;6.536;2023-05-14T00:17:14;101416.94;;;10.63;100.00
74659;BME280;63186;51.204;6.536;2023-05-14T00:19:39;101406.88;;;10.53;100.00
74659;BME280;63186;51.204;6.536;2023-05-14T00:22:07;101403.38;;;10.47;100.00
74659;BME280;63186;51.204;6.536;2023-05-14T00:24:33;101411.13;;;10.45;100.00
74659;BME280;63186;51.204;6.536;2023-05-14T00:26:59;101409.25;;;10.41;100.00
74659;BME280;63186;51.204;6.536;2023-05-14T00:29:24;101401.03;;;10.36;100.00
74659;BME280;63186;51.204;6.536;2023-05-14T00:31:49;101407.16;;;10.32;100.00
74659;BME280;63186;51.204;6.536;2023-05-14T00:34:14;101404.97;;;10.29;100.00
74659;BME280;63186;51.204;6.536;2023-05-14T00:36:40;101397.94;;;10.18;100.00
74659;BME280;63186;51.204;6.536;2023-05-14T00:39:05;101401.56;;;10.14;100.00
74659;BME280;63186;51.204;6.536;2023-05-14T00:41:30;101404.66;;;10.07;100.00
74659;BME280;63186;51.204;6.536;2023-05-14T00:43:55;101403.94;;;9.96;100.00
74659;BME280;63186;51.204;6.536;2023-05-14T00:46:21;101403.41;;;9.94;100.00
74659;BME280;63186;51.204;6.536;2023-05-14T00:48:46;101407.69;;;10.05;100.00
74659;BME280;63186;51.204;6.536;2023-05-14T00:51:12;101400.22;;;10.11;100.00
74659;BME280;63186;51.204;6.536;2023-05-14T00:53:37;101397.47;;;10.11;100.00
74659;BME280;63186;51.204;6.536;2023-05-14T00:56:03;101398.06;;;10.03;100.00
74659;BME280;63186;51.204;6.536;2023-05-14T00:58:29;101402.53;;;9.99;100.00
74659;BME280;63186;51.204;6.536;2023-05-14T01:00:54;101395.16;;;9.94;100.00
74659;BME280;63186;51.204;6.536;2023-05-14T01:03:20;101399.84;;;9.94;100.00
74659;BME280;63186;51.204;6.536;2023-05-14T01:08:36;101396.22;;;9.98;100.00
74659;BME280;63186;51.204;6.536;2023-05-14T01:11:39;101403.41;;;9.94;100.00
74659;BME280;63186;51.204;6.536;2023-05-14T01:16:38;101385.72;;;9.76;100.00
74659;BME280;63186;51.204;6.536;2023-05-14T01:19:06;101373.19;;;9.65;100.00
74659;BME280;63186;51.204;6.536;2023-05-14T01:21:38;101377.63;;;9.61;100.00
74659;BME280;63186;51.204;6.536;2023-05-14T01:24:07;101375.72;;;9.57;100.00
74659;BME280;63186;51.204;6.536;2023-05-14T01:26:33;101374.06;;;9.61;100.00
74659;BME280;63186;51.204;6.536;2023-05-14T01:29:03;101370.72;;;9.64;100.00
74659;BME280;63186;51.204;6.536;2023-05-14T01:31:33;101381.13;;;9.67;100.00
74659;BME280;63186;51.204;6.536;2023-05-14T01:34:03;101369.06;;;9.63;100.00
74659;BME280;63186;51.204;6.536;2023-05-14T01:36:29;101368.25;;;9.62;100.00
74659;BME280;63186;51.204;6.536;2023-05-14T01:38:56;101364.41;;;9.34;100.00
74659;BME280;63186;51.204;6.536;2023-05-14T01:41:22;101373.59;;;9.19;100.00
74659;BME280;63186;51.204;6.536;2023-05-14T01:43:49;101365.97;;;9.06;100.00
74659;BME280;63186;51.204;6.536;2023-05-14T01:46:17;101362.09;;;9.12;100.00
74659;BME280;63186;51.204;6.536;2023-05-14T01:48:43;101359.22;;;9.28;100.00
74659;BME280;63186;51.204;6.536;2023-05-14T01:51:08;101366.03;;;9.35;100.00
74659;BME280;63186;51.204;6.536;2023-05-14T01:53:33;101359.19;;;9.33;100.00
74659;BME280;63186;51.204;6.536;2023-05-14T01:55:59;101362.16;;;9.36;100.00
74659;BME280;63186;51.204;6.536;2023-05-14T01:58:24;101360.19;;;9.42;100.00
74659;BME280;63186;51.204;6.536;2023-05-14T02:00:50;101369.25;;;9.42;100.00
74659;BME280;63186;51.204;6.536;2023-05-14T02:03:15;101366.81;;;9.41;100.00
74659;BME280;63186;51.204;6.536;2023-05-14T02:05:40;101372.63;;;9.34;100.00
74659;BME280;63186;51.204;6.536;2023-05-14T02:08:05;101366.91;;;9.25;100.00
74659;BME280;63186;51.204;6.536;2023-05-14T02:10:31;101370.50;;;9.26;100.00
74659;BME280;63186;51.204;6.536;2023-05-14T02:12:56;101364.44;;;9.29;100.00
74659;BME280;63186;51.204;6.536;2023-05-14T02:15:21;101370.16;;;8.98;100.00
74659;BME280;63186;51.204;6.536;2023-05-14T02:17:46;101357.50;;;8.58;100.00
74659;BME280;63186;51.204;6.536;2023-05-14T02:20:12;101354.56;;;8.45;100.00
74659;BME280;63186;51.204;6.536;2023-05-14T02:22:37;101355.34;;;8.50;100.00
74659;BME280;63186;51.204;6.536;2023-05-14T02:25:03;101353.38;;;8.61;100.00
74659;BME280;63186;51.204;6.536;2023-05-14T02:27:28;101357.19;;;8.65;100.00
74659;BME280;63186;51.204;6.536;2023-05-14T02:29:53;101353.63;;;8.64;100.00
74659;BME280;63186;51.204;6.536;2023-05-14T02:32:20;101350.38;;;8.57;100.00
74659;BME280;63186;51.204;6.536;2023-05-14T02:34:45;101355.03;;;8.62;100.00
74659;BME280;63186;51.204;6.536;2023-05-14T02:37:11;101342.97;;;8.58;100.00
74659;BME280;63186;51.204;6.536;2023-05-14T02:39:36;101347.31;;;8.64;100.00
74659;BME280;63186;51.204;6.536;2023-05-14T02:42:01;101340.19;;;8.63;100.00
74659;BME280;63186;51.204;6.536;2023-05-14T02:44:26;101340.53;;;8.46;100.00
74659;BME280;63186;51.204;6.536;2023-05-14T02:46:52;101344.16;;;8.41;100.00
74659;BME280;63186;51.204;6.536;2023-05-14T02:49:17;101342.50;;;8.40;100.00
74659;BME280;63186;51.204;6.536;2023-05-14T02:51:42;101341.97;;;8.38;100.00
74659;BME280;63186;51.204;6.536;2023-05-14T02:54:07;101346.06;;;8.41;100.00
74659;BME280;63186;51.204;6.536;2023-05-14T02:56:33;101349.34;;;8.43;100.00
74659;BME280;63186;51.204;6.536;2023-05-14T02:58:59;101351.28;;;8.42;100.00
74659;BME280;63186;51.204;6.536;2023-05-14T03:01:24;101348.25;;;8.44;100.00
74659;BME280;63186;51.204;6.536;2023-05-14T03:03:49;101345.78;;;8.42;100.00
74659;BME280;63186;51.204;6.536;2023-05-14T03:06:15;101355.69;;;8.38;100.00
74659;BME280;63186;51.204;6.536;2023-05-14T03:08:40;101349.06;;;8.34;100.00
74659;BME280;63186;51.204;6.536;2023-05-14T03:11:05;101353.22;;;8.32;100.00
74659;BME280;63186;51.204;6.536;2023-05-14T03:13:31;101350.25;;;8.23;100.00
74659;BME280;63186;51.204;6.536;2023-05-14T03:15:56;101346.94;;;8.21;100.00
74659;BME280;63186;51.204;6.536;2023-05-14T03:18:21;101350.25;;;8.23;100.00
74659;BME280;63186;51.204;6.536;2023-05-14T03:20:47;101346.41;;;8.19;100.00
74659;BME280;63186;51.204;6.536;2023-05-14T03:23:12;101343.94;;;8.18;100.00
74659;BME280;63186;51.204;6.536;2023-05-14T03:25:38;101349.22;;;8.09;100.00
74659;BME280;63186;51.204;6.536;2023-05-14T03:28:04;101351.72;;;7.90;100.00
74659;BME280;63186;51.204;6.536;2023-05-14T03:30:29;101352.25;;;7.97;100.00
74659;BME280;63186;51.204;6.536;2023-05-14T03:32:54;101343.16;;;8.07;100.00
74659;BME280;63186;51.204;6.536;2023-05-14T03:35:20;101334.72;;;7.88;100.00
74659;BME280;63186;51.204;6.536;2023-05-14T03:37:45;101341.88;;;7.79;100.00
74659;BME280;63186;51.204;6.536;2023-05-14T03:40:10;101336.16;;;7.65;100.00
74659;BME280;63186;51.204;6.536;2023-05-14T03:42:36;101340.84;;;7.54;100.00
74659;BME280;63186;51.204;6.536;2023-05-14T03:45:01;101335.63;;;7.53;100.00
74659;BME280;63186;51.204;6.536;2023-05-14T03:47:26;101332.31;;;7.66;100.00
74659;BME280;63186;51.204;6.536;2023-05-14T03:49:52;101334.19;;;7.76;100.00
74659;BME280;63186;51.204;6.536;2023-05-14T03:52:17;101338.63;;;7.77;100.00
74659;BME280;63186;51.204;6.536;2023-05-14T03:54:42;101332.84;;;7.83;100.00
74659;BME280;63186;51.204;6.536;2023-05-14T03:57:08;101335.53;;;7.88;100.00
74659;BME280;63186;51.204;6.536;2023-05-14T03:59:33;101331.16;;;7.87;100.00
74659;BME280;63186;51.204;6.536;2023-05-14T04:01:58;101335.59;;;7.78;100.00
74659;BME280;63186;51.204;6.536;2023-05-14T04:04:23;101337.78;;;7.71;100.00
74659;BME280;63186;51.204;6.536;2023-05-14T04:06:49;101335.59;;;7.68;100.00
74659;BME280;63186;51.204;6.536;2023-05-14T04:09:14;101331.75;;;7.74;100.00
74659;BME280;63186;51.204;6.536;2023-05-14T04:11:39;101339.16;;;7.79;100.00
74659;BME280;63186;51.204;6.536;2023-05-14T04:14:05;101328.19;;;7.74;100.00
74659;BME280;63186;51.204;6.536;2023-05-14T04:16:30;101331.22;;;7.72;100.00
74659;BME280;63186;51.204;6.536;2023-05-14T04:18:55;101329.53;;;7.81;100.00
74659;BME280;63186;51.204;6.536;2023-05-14T04:21:21;101329.75;;;7.95;100.00
74659;BME280;63186;51.204;6.536;2023-05-14T04:23:46;101333.81;;;8.13;100.00
74659;BME280;63186;51.204;6.536;2023-05-14T04:26:11;101339.25;;;8.28;100.00
74659;BME280;63186;51.204;6.536;2023-05-14T04:28:36;101344.22;;;8.81;100.00
74659;BME280;63186;51.204;6.536;2023-05-14T04:31:02;101334.88;;;9.16;100.00
74659;BME280;63186;51.204;6.536;2023-05-14T04:33:27;101343.50;;;9.62;100.00
74659;BME280;63186;51.204;6.536;2023-05-14T04:35:53;101345.66;;;9.94;100.00
74659;BME280;63186;51.204;6.536;2023-05-14T04:38:18;101339.16;;;10.09;100.00
74659;BME280;63186;51.204;6.536;2023-05-14T04:40:43;101336.09;;;10.35;100.00
74659;BME280;63186;51.204;6.536;2023-05-14T04:43:09;101337.09;;;10.81;100.00
74659;BME280;63186;51.204;6.536;2023-05-14T04:45:34;101329.25;;;11.40;97.30
74659;BME280;63186;51.204;6.536;2023-05-14T04:48:01;101334.63;;;11.78;94.91
74659;BME280;63186;51.204;6.536;2023-05-14T04:50:27;101340.53;;;11.57;93.67
74659;BME280;63186;51.204;6.536;2023-05-14T04:52:53;101341.78;;;11.65;94.92
74659;BME280;63186;51.204;6.536;2023-05-14T04:55:20;101334.78;;;12.28;93.81
74659;BME280;63186;51.204;6.536;2023-05-14T04:57:45;101321.53;;;12.66;91.82
74659;BME280;63186;51.204;6.536;2023-05-14T05:00:11;101336.06;;;13.16;90.46
74659;BME280;63186;51.204;6.536;2023-05-14T05:02:37;101336.81;;;13.53;88.75
74659;BME280;63186;51.204;6.536;2023-05-14T05:05:02;101335.16;;;13.43;86.97
74659;BME280;63186;51.204;6.536;2023-05-14T05:07:28;101331.50;;;13.34;88.53
74659;BME280;63186;51.204;6.536;2023-05-14T05:09:53;101328.97;;;13.01;89.85
74659;BME280;63186;51.204;6.536;2023-05-14T05:12:18;101328.56;;;12.72;91.08
74659;BME280;63186;51.204;6.536;2023-05-14T05:14:43;101337.22;;;12.43;92.98
74659;BME280;63186;51.204;6.536;2023-05-14T05:17:09;101330.81;;;12.20;92.91
74659;BME280;63186;51.204;6.536;2023-05-14T05:19:34;101334.38;;;12.20;95.11
74659;BME280;63186;51.204;6.536;2023-05-14T05:22:00;101336.38;;;12.92;93.63
74659;BME280;63186;51.204;6.536;2023-05-14T05:24:25;101337.84;;;13.57;89.68
74659;BME280;63186;51.204;6.536;2023-05-14T05:26:50;101337.88;;;14.05;88.14
74659;BME280;63186;51.204;6.536;2023-05-14T05:29:16;101339.84;;;14.79;84.79
74659;BME280;63186;51.204;6.536;2023-05-14T05:31:41;101343.59;;;15.27;81.63
74659;BME280;63186;51.204;6.536;2023-05-14T05:34:06;101330.06;;;14.90;81.31
74659;BME280;63186;51.204;6.536;2023-05-14T05:36:32;101339.09;;;14.30;82.91
74659;BME280;63186;51.204;6.536;2023-05-14T05:38:57;101335.34;;;13.78;85.82
74659;BME280;63186;51.204;6.536;2023-05-14T05:41:23;101325.72;;;13.44;88.31
74659;BME280;63186;51.204;6.536;2023-05-14T05:43:48;101328.09;;;13.68;90.07
74659;BME280;63186;51.204;6.536;2023-05-14T05:46:13;101332.28;;;14.45;87.20
74659;BME280;63186;51.204;6.536;2023-05-14T05:48:38;101328.13;;;15.08;85.33
74659;BME280;63186;51.204;6.536;2023-05-14T05:51:04;101333.25;;;15.53;83.82
74659;BME280;63186;51.204;6.536;2023-05-14T05:53:29;101333.91;;;15.67;81.75
74659;BME280;63186;51.204;6.536;2023-05-14T05:55:54;101338.75;;;16.76;79.11
74659;BME280;63186;51.204;6.536;2023-05-14T05:58:20;101336.19;;;17.71;75.01
74659;BME280;63186;51.204;6.536;2023-05-14T06:00:45;101334.63;;;18.18;71.98
74659;BME280;63186;51.204;6.536;2023-05-14T06:03:12;101344.28;;;18.46;70.84
74659;BME280;63186;51.204;6.536;2023-05-14T06:05:37;101346.13;;;18.05;71.84
74659;BME280;63186;51.204;6.536;2023-05-14T06:08:03;101347.63;;;17.90;73.24
74659;BME280;63186;51.204;6.536;2023-05-14T06:10:28;101355.56;;;18.00;73.22
74659;BME280;63186;51.204;6.536;2023-05-14T06:12:54;101353.53;;;18.86;71.38
74659;BME280;63186;51.204;6.536;2023-05-14T06:15:19;101348.41;;;19.88;68.04
74659;BME280;63186;51.204;6.536;2023-05-14T06:17:44;101351.25;;;20.39;66.35
74659;BME280;63186;51.204;6.536;2023-05-14T06:20:10;101353.91;;;20.48;65.22
74659;BME280;63186;51.204;6.536;2023-05-14T06:22:35;101350.88;;;20.41;66.09
74659;BME280;63186;51.204;6.536;2023-05-14T06:25:02;101354.28;;;21.20;64.44
74659;BME280;63186;51.204;6.536;2023-05-14T06:27:27;101360.38;;;21.45;62.88
74659;BME280;63186;51.204;6.536;2023-05-14T06:29:52;101353.00;;;21.56;61.96
74659;BME280;63186;51.204;6.536;2023-05-14T06:32:18;101357.00;;;21.36;62.72
74659;BME280;63186;51.204;6.536;2023-05-14T06:34:43;101354.56;;;21.54;62.71
74659;BME280;63186;51.204;6.536;2023-05-14T06:37:09;101361.06;;;22.27;61.06
74659;BME280;63186;51.204;6.536;2023-05-14T06:39:35;101361.59;;;22.62;59.79
74659;BME280;63186;51.204;6.536;2023-05-14T06:42:00;101358.00;;;22.88;58.80
74659;BME280;63186;51.204;6.536;2023-05-14T06:44:26;101351.22;;;22.89;58.05
74659;BME280;63186;51.204;6.536;2023-05-14T06:46:51;101351.53;;;22.58;59.17
74659;BME280;63186;51.204;6.536;2023-05-14T06:49:17;101355.66;;;22.94;58.41
74659;BME280;63186;51.204;6.536;2023-05-14T06:51:42;101346.75;;;22.88;58.66
74659;BME280;63186;51.204;6.536;2023-05-14T06:54:07;101351.72;;;23.32;58.14
74659;BME280;63186;51.204;6.536;2023-05-14T06:56:33;101345.69;;;23.64;56.26
74659;BME280;63186;51.204;6.536;2023-05-14T06:58:58;101345.31;;;23.01;57.84
74659;BME280;63186;51.204;6.536;2023-05-14T07:01:23;101346.53;;;23.00;57.04
74659;BME280;63186;51.204;6.536;2023-05-14T07:03:49;101347.75;;;22.46;58.73
74659;BME280;63186;51.204;6.536;2023-05-14T07:06:14;101340.91;;;22.70;54.93
74659;BME280;63186;51.204;6.536;2023-05-14T07:08:39;101348.34;;;23.19;57.60
74659;BME280;63186;51.204;6.536;2023-05-14T07:11:05;101340.38;;;23.21;54.75
74659;BME280;63186;51.204;6.536;2023-05-14T07:13:30;101347.53;;;23.15;57.03
74659;BME280;63186;51.204;6.536;2023-05-14T07:15:55;101350.88;;;23.62;56.57
74659;BME280;63186;51.204;6.536;2023-05-14T07:18:22;101348.78;;;23.55;52.71
74659;BME280;63186;51.204;6.536;2023-05-14T07:20:48;101355.38;;;23.36;56.45
74659;BME280;63186;51.204;6.536;2023-05-14T07:23:13;101358.41;;;23.54;55.43
74659;BME280;63186;51.204;6.536;2023-05-14T07:25:38;101350.31;;;23.49;54.80
74659;BME280;63186;51.204;6.536;2023-05-14T07:28:04;101357.41;;;23.39;54.17
74659;BME280;63186;51.204;6.536;2023-05-14T07:30:29;101356.31;;;23.47;55.58
74659;BME280;63186;51.204;6.536;2023-05-14T07:32:54;101361.31;;;24.02;54.82
74659;BME280;63186;51.204;6.536;2023-05-14T07:35:19;101358.97;;;24.62;53.15
74659;BME280;63186;51.204;6.536;2023-05-14T07:37:45;101353.31;;;24.07;53.93
74659;BME280;63186;51.204;6.536;2023-05-14T07:40:10;101354.69;;;24.28;54.23
74659;BME280;63186;51.204;6.536;2023-05-14T07:42:35;101355.50;;;23.47;55.78
74659;BME280;63186;51.204;6.536;2023-05-14T07:45:01;101352.59;;;22.00;60.36
74659;BME280;63186;51.204;6.536;2023-05-14T07:47:26;101345.19;;;21.65;61.17
74659;BME280;63186;51.204;6.536;2023-05-14T07:49:55;101352.31;;;22.85;56.25
74659;BME280;63186;51.204;6.536;2023-05-14T07:52:21;101346.59;;;24.23;54.26
74659;BME280;63186;51.204;6.536;2023-05-14T07:54:46;101350.69;;;24.91;52.20
74659;BME280;63186;51.204;6.536;2023-05-14T07:57:12;101350.69;;;24.91;52.04
74659;BME280;63186;51.204;6.536;2023-05-14T07:59:37;101348.78;;;24.44;53.37
74659;BME280;63186;51.204;6.536;2023-05-14T08:02:02;101344.97;;;24.77;52.65
74659;BME280;63186;51.204;6.536;2023-05-14T08:04:27;101351.47;;;24.29;53.97
74659;BME280;63186;51.204;6.536;2023-05-14T08:06:53;101351.47;;;24.26;50.17
74659;BME280;63186;51.204;6.536;2023-05-14T08:09:19;101351.16;;;24.38;52.54
74659;BME280;63186;51.204;6.536;2023-05-14T08:11:44;101353.44;;;23.77;55.00
74659;BME280;63186;51.204;6.536;2023-05-14T08:14:10;101358.38;;;22.87;56.62
74659;BME280;63186;51.204;6.536;2023-05-14T08:16:35;101354.66;;;22.26;57.95
74659;BME280;63186;51.204;6.536;2023-05-14T08:19:00;101353.16;;;21.86;57.49
74659;BME280;63186;51.204;6.536;2023-05-14T08:21:26;101355.97;;;21.44;59.67
74659;BME280;63186;51.204;6.536;2023-05-14T08:23:52;101348.81;;;21.27;59.93
74659;BME280;63186;51.204;6.536;2023-05-14T08:26:17;101364.19;;;21.99;58.39
74659;BME280;63186;51.204;6.536;2023-05-14T08:28:42;101356.97;;;22.20;55.87
74659;BME280;63186;51.204;6.536;2023-05-14T08:31:07;101355.25;;;22.12;57.04
74659;BME280;63186;51.204;6.536;2023-05-14T08:33:33;101353.66;;;22.94;53.11
74659;BME280;63186;51.204;6.536;2023-05-14T08:35:58;101353.91;;;23.83;52.15
74659;BME280;63186;51.204;6.536;2023-05-14T08:38:24;101354.69;;;23.83;50.00
74659;BME280;63186;51.204;6.536;2023-05-14T08:40:55;101345.69;;;24.08;50.61
74659;BME280;63186;51.204;6.536;2023-05-14T08:43:25;101347.75;;;24.66;50.04
74659;BME280;63186;51.204;6.536;2023-05-14T08:45:53;101354.13;;;25.47;49.15
74659;BME280;63186;51.204;6.536;2023-05-14T08:48:21;101337.28;;;25.71;48.42
74659;BME280;63186;51.204;6.536;2023-05-14T08:50:48;101340.09;;;25.75;48.11
74659;BME280;63186;51.204;6.536;2023-05-14T08:53:13;101343.69;;;25.58;49.70
74659;BME280;63186;51.204;6.536;2023-05-14T08:55:39;101336.41;;;25.42;48.84
74659;BME280;63186;51.204;6.536;2023-05-14T08:58:04;101341.53;;;25.05;49.84
74659;BME280;63186;51.204;6.536;2023-05-14T09:00:30;101335.97;;;25.33;49.22
74659;BME280;63186;51.204;6.536;2023-05-14T09:02:56;101334.50;;;25.89;47.61
74659;BME280;63186;51.204;6.536;2023-05-14T09:05:22;101322.38;;;25.71;48.55
74659;BME280;63186;51.204;6.536;2023-05-14T09:07:47;101329.59;;;25.61;48.88
74659;BME280;63186;51.204;6.536;2023-05-14T09:10:14;101331.16;;;25.41;47.72
74659;BME280;63186;51.204;6.536;2023-05-14T09:12:40;101336.31;;;25.14;49.66
74659;BME280;63186;51.204;6.536;2023-05-14T09:15:05;101323.50;;;25.31;47.34
74659;BME280;63186;51.204;6.536;2023-05-14T09:17:32;101330.31;;;25.19;48.50
74659;BME280;63186;51.204;6.536;2023-05-14T09:19:57;101331.59;;;25.54;48.41
74659;BME280;63186;51.204;6.536;2023-05-14T09:22:23;101337.13;;;25.11;48.86
74659;BME280;63186;51.204;6.536;2023-05-14T09:25:02;101328.53;;;24.86;44.33
74659;BME280;63186;51.204;6.536;2023-05-14T09:27:29;101322.25;;;25.10;48.27
74659;BME280;63186;51.204;6.536;2023-05-14T09:30:03;101328.50;;;24.82;44.56
74659;BME280;63186;51.204;6.536;2023-05-14T09:32:34;101321.31;;;24.26;48.51
74659;BME280;63186;51.204;6.536;2023-05-14T09:35:08;101319.16;;;24.64;47.62
74659;BME280;63186;51.204;6.536;2023-05-14T09:37:35;101321.94;;;24.53;44.75
74659;BME280;63186;51.204;6.536;2023-05-14T09:40:05;101313.56;;;24.68;46.49
74659;BME280;63186;51.204;6.536;2023-05-14T09:42:30;101315.72;;;24.99;49.64
74659;BME280;63186;51.204;6.536;2023-05-14T09:44:56;101307.00;;;24.46;48.64
74659;BME280;63186;51.204;6.536;2023-05-14T09:47:21;101306.59;;;24.51;47.14
74659;BME280;63186;51.204;6.536;2023-05-14T09:49:47;101303.03;;;24.02;47.50
74659;BME280;63186;51.204;6.536;2023-05-14T09:52:13;101309.13;;;24.12;49.65
74659;BME280;63186;51.204;6.536;2023-05-14T09:54:38;101303.00;;;23.95;49.12
74659;BME280;63186;51.204;6.536;2023-05-14T09:57:04;101299.72;;;23.90;49.47
74659;BME280;63186;51.204;6.536;2023-05-14T09:59:29;101298.75;;;23.68;48.02
74659;BME280;63186;51.204;6.536;2023-05-14T10:01:56;101300.94;;;23.92;47.87
74659;BME280;63186;51.204;6.536;2023-05-14T10:04:22;101298.72;;;24.16;47.25
74659;BME280;63186;51.204;6.536;2023-05-14T10:06:50;101293.50;;;24.14;46.38
74659;BME280;63186;51.204;6.536;2023-05-14T10:09:18;101299.13;;;24.14;44.01
74659;BME280;63186;51.204;6.536;2023-05-14T10:11:52;101292.75;;;24.21;43.25
74659;BME280;63186;51.204;6.536;2023-05-14T10:14:37;101291.59;;;24.29;41.09
74659;BME280;63186;51.204;6.536;2023-05-14T10:17:05;101289.69;;;24.40;45.40
74659;BME280;63186;51.204;6.536;2023-05-14T10:19:32;101288.88;;;24.40;45.45
74659;BME280;63186;51.204;6.536;2023-05-14T10:22:06;101294.41;;;24.29;41.46
74659;BME280;63186;51.204;6.536;2023-05-14T10:24:32;101281.22;;;23.85;45.98
74659;BME280;63186;51.204;6.536;2023-05-14T10:26:58;101279.34;;;24.03;44.58
74659;BME280;63186;51.204;6.536;2023-05-14T10:29:33;101279.88;;;24.23;41.10
74659;BME280;63186;51.204;6.536;2023-05-14T10:32:03;101279.28;;;24.51;43.48
74659;BME280;63186;51.204;6.536;2023-05-14T10:34:40;101274.56;;;24.73;43.67
74659;BME280;63186;51.204;6.536;2023-05-14T10:37:21;101271.38;;;24.78;41.31
74659;BME280;63186;51.204;6.536;2023-05-14T10:39:58;101270.66;;;24.99;38.22
74659;BME280;63186;51.204;6.536;2023-05-14T10:42:37;101257.78;;;24.98;37.90
74659;BME280;63186;51.204;6.536;2023-05-14T10:45:09;101253.75;;;24.99;41.16
74659;BME280;63186;51.204;6.536;2023-05-14T10:47:36;101262.09;;;24.74;42.80
74659;BME280;63186;51.204;6.536;2023-05-14T10:50:04;101249.25;;;24.84;41.92
74659;BME280;63186;51.204;6.536;2023-05-14T10:52:30;101247.75;;;25.04;40.71
74659;BME280;63186;51.204;6.536;2023-05-14T10:54:57;101245.38;;;25.35;42.37
74659;BME280;63186;51.204;6.536;2023-05-14T10:57:24;101251.47;;;25.51;43.01
74659;BME280;63186;51.204;6.536;2023-05-14T10:59:55;101236.97;;;25.81;42.84
74659;BME280;63186;51.204;6.536;2023-05-14T11:02:25;101234.56;;;25.90;41.84
74659;BME280;63186;51.204;6.536;2023-05-14T11:07:23;101232.00;;;24.93;43.11
74659;BME280;63186;51.204;6.536;2023-05-14T11:09:50;101227.81;;;24.51;45.40
74659;BME280;63186;51.204;6.536;2023-05-14T11:12:16;101233.16;;;24.04;46.08
74659;BME280;63186;51.204;6.536;2023-05-14T11:14:42;101224.38;;;23.21;46.99
74659;BME280;63186;51.204;6.536;2023-05-14T11:17:07;101224.78;;;22.86;46.53
74659;BME280;63186;51.204;6.536;2023-05-14T11:19:33;101215.72;;;22.32;46.71
74659;BME280;63186;51.204;6.536;2023-05-14T11:21:58;101210.28;;;22.16;47.84
74659;BME280;63186;51.204;6.536;2023-05-14T11:24:25;101214.75;;;21.94;48.77
74659;BME280;63186;51.204;6.536;2023-05-14T11:26:51;101215.97;;;21.97;48.60
74659;BME280;63186;51.204;6.536;2023-05-14T11:29:17;101209.94;;;21.95;48.63
74659;BME280;63186;51.204;6.536;2023-05-14T11:31:42;101206.75;;;21.97;48.87
74659;BME280;63186;51.204;6.536;2023-05-14T11:34:07;101197.97;;;21.98;48.44
74659;BME280;63186;51.204;6.536;2023-05-14T11:36:35;101199.91;;;21.94;48.33
74659;BME280;63186;51.204;6.536;2023-05-14T11:39:00;101201.81;;;21.86;48.35
74659;BME280;63186;51.204;6.536;2023-05-14T11:41:26;101199.50;;;21.65;49.67
74659;BME280;63186;51.204;6.536;2023-05-14T11:43:52;101208.72;;;21.43;50.63
74659;BME280;63186;51.204;6.536;2023-05-14T11:46:17;101192.25;;;20.76;55.13
74659;BME280;63186;51.204;6.536;2023-05-14T11:48:43;101203.28;;;20.30;55.59
74659;BME280;63186;51.204;6.536;2023-05-14T11:51:08;101217.50;;;20.06;57.76
74659;BME280;63186;51.204;6.536;2023-05-14T11:53:33;101205.72;;;19.97;57.74
74659;BME280;63186;51.204;6.536;2023-05-14T11:55:59;101197.06;;;19.86;58.75
74659;BME280;63186;51.204;6.536;2023-05-14T11:58:24;101200.88;;;19.78;59.96
74659;BME280;63186;51.204;6.536;2023-05-14T12:00:54;101191.06;;;19.21;64.46
74659;BME280;63186;51.204;6.536;2023-05-14T12:03:20;101196.34;;;18.94;63.82
74659;BME280;63186;51.204;6.536;2023-05-14T12:05:57;101187.47;;;19.20;65.92
74659;BME280;63186;51.204;6.536;2023-05-14T12:08:30;101191.78;;;19.34;70.16
74659;BME280;63186;51.204;6.536;2023-05-14T12:10:58;101193.22;;;19.28;66.24
74659;BME280;63186;51.204;6.536;2023-05-14T12:13:25;101188.19;;;19.17;66.52
74659;BME280;63186;51.204;6.536;2023-05-14T12:15:56;101187.47;;;19.20;67.26
74659;BME280;63186;51.204;6.536;2023-05-14T12:18:25;101186.63;;;19.36;66.17
74659;BME280;63186;51.204;6.536;2023-05-14T12:20:51;101179.78;;;19.49;64.97
74659;BME280;63186;51.204;6.536;2023-05-14T12:23:24;101174.66;;;19.35;70.90
74659;BME280;63186;51.204;6.536;2023-05-14T12:25:51;101175.31;;;19.44;67.42
74659;BME280;63186;51.204;6.536;2023-05-14T12:28:17;101171.06;;;20.01;65.62
74659;BME280;63186;51.204;6.536;2023-05-14T12:30:43;101153.78;;;20.50;63.59
74659;BME280;63186;51.204;6.536;2023-05-14T12:33:09;101163.63;;;21.06;62.89
74659;BME280;63186;51.204;6.536;2023-05-14T12:35:34;101150.22;;;21.64;61.18
74659;BME280;63186;51.204;6.536;2023-05-14T12:38:01;101156.09;;;21.82;60.12
74659;BME280;63186;51.204;6.536;2023-05-14T12:40:27;101142.63;;;21.91;58.37
74659;BME280;63186;51.204;6.536;2023-05-14T12:42:52;101141.25;;;22.08;58.02
74659;BME280;63186;51.204;6.536;2023-05-14T12:45:17;101134.22;;;22.21;57.07
74659;BME280;63186;51.204;6.536;2023-05-14T12:47:43;101137.25;;;22.39;56.67
74659;BME280;63186;51.204;6.536;2023-05-14T12:50:08;101139.91;;;22.59;53.92
74659;BME280;63186;51.204;6.536;2023-05-14T12:52:34;101131.78;;;22.50;53.97